• Join FlightAware (Why Join?)
  • Login
  • US Flag 
12:09AM EST


 

Airport Tracker/Info


-or-


 

Live Flight TrackerFlight Track Log ✈ D-QFJG ✈ 21-Apr-2013 ✈ YMML / MEL - NFFN / NAN

Flight Track Log - Related Links

Times and Time Zones

All times are in EDT time to prevent confusion due to time zone crossing. See the D-QFJG flight status page for this flight to view local times or setup timezone preferences in your user account.

Time Position Orientation Groundspeed Altitude Reporting Facility
EDT Latitude Longitude Course Direction KTS MPH feet Rate Location/Type
09:48AM -37.6323 144.8331 343° North 3,900  Level Aus ATC (Calculated)
09:49AM -37.6225 144.8292 North 175 201 2,500 720 Descending Aus ATC (RADAR)
09:50AM -37.5600 144.8414 North 231 266 5,200 2,520 Climbing Aus ATC (RADAR)
09:51AM -37.4932 144.9390 49° Northeast 281 323 8,800 2,460 Climbing Aus ATC (RADAR)
09:52AM -37.4549 145.0018 52° Northeast 304 350 10,600 1,860 Climbing Aus ATC (RADAR)
09:53AM -37.4007 145.1016 56° Northeast 357 411 12,100 1,980 Climbing Aus ATC (RADAR)
09:55AM -37.3163 145.2631 57° Northeast 378 435 15,600 2,340 Climbing Aus ATC (RADAR)
09:56AM -37.2485 145.3938 57° Northeast 384 442 18,400 2,280 Climbing Aus ATC (RADAR)
09:57AM -37.1894 145.5060 57° Northeast 389 448 20,600 1,980 Climbing Aus ATC (RADAR)
09:58AM -37.1299 145.6195 57° Northeast 392 451 22,400 1,680 Climbing Aus ATC (RADAR)
09:59AM -37.0627 145.7459 56° Northeast 407 468 24,100 1,440 Climbing Aus ATC (RADAR)
10:00AM -36.9936 145.8747 56° Northeast 414 476 25,600 1,500 Climbing Aus ATC (RADAR)
10:01AM -36.9297 145.9953 56° Northeast 415 478 27,300 1,260 Climbing Aus ATC (RADAR)
10:02AM -36.8601 146.1250 56° Northeast 420 483 28,300 960 Climbing Aus ATC (RADAR)
10:03AM -36.7934 146.2497 56° Northeast 433 498 29,400 1,380 Climbing Aus ATC (RADAR)
10:04AM -36.7259 146.3741 56° Northeast 431 496 31,100 1,500 Climbing Aus ATC (RADAR)
10:05AM -36.6541 146.5057 56° Northeast 423 487 32,600 1,260 Climbing Aus ATC (RADAR)
10:06AM -36.5889 146.6265 56° Northeast 420 483 33,800 960 Climbing Aus ATC (RADAR)
10:07AM -36.5233 146.7464 56° Northeast 419 482 34,600 540 Climbing Aus ATC (RADAR)
10:08AM -36.4497 146.8801 56° Northeast 434 499 35,000 120 Climbing Aus ATC (RADAR)
10:09AM -36.3813 147.0053 56° Northeast 437 503 34,900 -60 Descending Aus ATC (RADAR)
10:10AM -36.3076 147.1409 56° Northeast 435 501 34,900  Level Aus ATC (RADAR)
10:11AM -36.2320 147.2759 55° Northeast 440 506 34,900  Level Aus ATC (RADAR)
10:12AM -36.1621 147.4027 56° Northeast 444 511 34,900  Level Aus ATC (RADAR)
10:13AM -36.0909 147.5296 55° Northeast 447 514 34,900  Level Aus ATC (RADAR)
10:15AM -36.0137 147.6670 55° Northeast 447 514 34,900  Level Aus ATC (RADAR)
10:16AM -35.9419 147.7956 55° Northeast 454 522 34,900  Level Aus ATC (RADAR)
10:17AM -35.8630 147.9359 55° Northeast 458 527 34,900  Level Aus ATC (RADAR)
10:18AM -35.7896 148.0659 55° Northeast 460 529 34,900  Level Aus ATC (RADAR)
10:19AM -35.7156 148.1959 55° Northeast 461 531 34,900  Level Aus ATC (RADAR)
10:20AM -35.6345 148.3380 55° Northeast 466 536 35,000  Climbing Aus ATC (RADAR)
10:21AM -35.5591 148.4707 55° Northeast 470 541 35,000  Level Aus ATC (RADAR)
10:22AM -35.4839 148.6213 59° Northeast 474 545 35,000  Level Aus ATC (RADAR)
10:23AM -35.4215 148.7686 63° Northeast 482 555 35,000  Level Aus ATC (RADAR)
10:24AM -35.3589 148.9148 62° Northeast 477 549 35,000  Level Aus ATC (RADAR)
10:25AM -35.2916 149.0725 62° Northeast 475 547 35,000  Level Aus ATC (RADAR)
10:26AM -35.2187 149.2417 62° Northeast 477 549 35,000 -60 Level Aus ATC (RADAR)
10:27AM -35.1607 149.3748 62° Northeast 478 550 34,900  Descending Aus ATC (RADAR)
10:28AM -35.0972 149.5194 62° Northeast 478 550 35,000  Climbing Aus ATC (RADAR)
10:29AM -35.0336 149.6646 62° Northeast 479 551 34,900  Descending Aus ATC (RADAR)
10:30AM -34.9642 149.8222 62° Northeast 481 554 35,000  Climbing Aus ATC (RADAR)
10:31AM -34.8996 149.9681 62° Northeast 480 552 34,900 -60 Descending Aus ATC (RADAR)
10:32AM -34.8294 150.1257 62° Northeast 479 551 34,900  Level Aus ATC (RADAR)
10:33AM -34.7653 150.2704 62° Northeast 479 551 34,900  Level Aus ATC (RADAR)
10:34AM -34.6956 150.4261 61° Northeast 477 549 34,900  Level Aus ATC (RADAR)
10:35AM -34.6316 150.5688 61° Northeast 473 544 34,900  Level Aus ATC (RADAR)
10:36AM -34.5639 150.7179 61° Northeast 479 551 34,900  Level Aus ATC (RADAR)
10:37AM -34.4980 150.8636 61° Northeast 469 540 34,900  Level Aus ATC (RADAR)
10:38AM -34.4304 151.0122 61° Northeast 477 549 34,900  Level Aus ATC (RADAR)
10:39AM -34.3637 151.1580 61° Northeast 471 542 34,900  Level Aus ATC (RADAR)
10:40AM -34.2874 151.3234 61° Northeast 475 547 34,900  Level Aus ATC (RADAR)
10:42AM -34.1629 151.5926 61° Northeast 488 562 34,900  Level Aus ATC (RADAR)
10:43AM -34.1243 151.6759 61° Northeast 489 563 34,900  Level Aus ATC (RADAR)
10:45AM -34.0055 151.9303 61° Northeast 478 550 34,900  Level Aus ATC (RADAR)
10:46AM -33.9328 152.0848 60° Northeast 479 551 34,900  Level Aus ATC (RADAR)
10:47AM -33.8435 152.2738 60° Northeast 477 549 34,900  Level Aus ATC (RADAR)
10:48AM -33.7955 152.3755 60° Northeast 489 563 34,900  Level Aus ATC (RADAR)
10:49AM -33.7263 152.5213 60° Northeast 475 547 34,900  Level Aus ATC (RADAR)
10:50AM -33.6330 152.7171 60° Northeast 490 564 34,900  Level Aus ATC (RADAR)
10:51AM -33.5856 152.8155 60° Northeast 477 549 34,900  Level Aus ATC (RADAR)
10:52AM -33.5175 152.9571 60° Northeast 478 550 34,900  Level Aus ATC (RADAR)
10:53AM -33.4226 153.1515 60° Northeast 490 564 34,900  Level Aus ATC (RADAR)
10:54AM -33.3747 153.2498 60° Northeast 476 548 34,900  Level Aus ATC (RADAR)
10:55AM -33.3031 153.3985 60° Northeast 492 566 34,900  Level Aus ATC (RADAR)
10:56AM -33.2096 153.5901 60° Northeast 475 547 34,900  Level Aus ATC (RADAR)
10:57AM -33.1607 153.6911 60° Northeast 489 563 34,900  Level Aus ATC (RADAR)
10:58AM -33.0881 153.8358 59° Northeast 476 548 34,900  Level Aus ATC (RADAR)
11:00AM -32.9892 154.0359 60° Northeast 479 551 34,900  Level Aus ATC (RADAR)
11:00AM -32.9430 154.1298 60° Northeast 478 550 34,900  Level Aus ATC (RADAR)
11:01AM -32.8688 154.2791 59° Northeast 498 573 34,900  Level Aus ATC (RADAR)
11:03AM -32.7475 154.5188 59° Northeast 482 555 35,000  Climbing Aus ATC (RADAR)
11:03AM -32.7202 154.5742 60° Northeast 498 573 35,000  Level Aus ATC (RADAR)
11:04AM -32.6464 154.7192 59° Northeast 483 556 35,000  Level Aus ATC (RADAR)
11:06AM -32.5453 154.9172 59° Northeast 504 580 35,000  Level Aus ATC (RADAR)
11:07AM -32.4892 155.0097 54° Northeast 484 557 35,000  Level Aus ATC (RADAR)
11:08AM -32.4033 155.1532 55° Northeast 506 582 35,000  Level Aus ATC (RADAR)
11:09AM -32.2948 155.3330 55° Northeast 503 579 35,000  Level Aus ATC (RADAR)
11:10AM -32.2391 155.4256 55° Northeast 487 560 35,000  Level Aus ATC (RADAR)
11:11AM -32.1517 155.5683 54° Northeast 503 579 35,000  Level Aus ATC (RADAR)
11:12AM -32.0420 155.7483 54° Northeast 483 556 35,000  Level Aus ATC (RADAR)
11:13AM -31.9872 155.8371 54° Northeast 483 556 35,000  Level Aus ATC (RADAR)
11:14AM -31.9031 155.9774 55° Northeast 497 572 35,000  Level Aus ATC (RADAR)
11:15AM -31.7933 156.1545 54° Northeast 500 575 35,000  Level Aus ATC (RADAR)
11:16AM -31.7456 156.2322 54° Northeast 501 577 35,000  Level Aus ATC (RADAR)
11:17AM -31.6465 156.3872 53° Northeast 502 578 35,000  Level Aus ATC (RADAR)
11:20AM -31.4039 156.7740 54° Northeast 35,000  Level Aus ATC (Calculated)
11:22AM -31.2834 156.9648 54° Northeast  Level FlightAware Approximate
11:23AM -31.2047 157.0891 53° Northeast  Level FlightAware Approximate
11:24AM -31.1259 157.2131 53° Northeast  Level FlightAware Approximate
11:24AM -31.0582 157.3192 58° Northeast 35,000  Level Aus ATC (Calculated)
11:25AM -31.0097 157.4108 90° East 35,000  Level Aus ATC (Calculated)
11:25AM -31.0097 157.4108 275° West 35,000  Level Aus ATC (Calculated)
11:27AM -30.9865 157.1087 275° West  Level FlightAware Approximate
11:28AM -30.9984 157.2623 95° East  Level FlightAware Approximate
11:29AM -31.0101 157.4159 95° East  Level FlightAware Approximate
11:30AM -30.9819 157.4474 58° Northeast  Level FlightAware Approximate
11:31AM -30.9123 157.5784 58° Northeast  Level FlightAware Approximate
11:32AM -30.8426 157.7093 58° Northeast  Level FlightAware Approximate
11:33AM -30.7728 157.8400 58° Northeast  Level FlightAware Approximate
11:34AM -30.7028 157.9705 58° Northeast  Level FlightAware Approximate
11:35AM -30.6328 158.1008 58° Northeast  Level FlightAware Approximate
11:36AM -30.5625 158.2310 58° Northeast  Level FlightAware Approximate
11:37AM -30.4922 158.3609 58° Northeast  Level FlightAware Approximate
11:38AM -30.4217 158.4906 58° Northeast  Level FlightAware Approximate
11:39AM -30.3511 158.6202 58° Northeast  Level FlightAware Approximate
11:40AM -30.2804 158.7496 58° Northeast  Level FlightAware Approximate
11:41AM -29.8820 159.4804 58° Northeast  Level FlightAware Approximate
11:42AM -29.8103 159.6085 57° Northeast  Level FlightAware Approximate
11:43AM -29.7385 159.7363 57° Northeast  Level FlightAware Approximate
11:44AM -29.6665 159.8640 57° Northeast  Level FlightAware Approximate
11:45AM -29.5944 159.9915 57° Northeast  Level FlightAware Approximate
11:46AM -29.5222 160.1188 57° Northeast  Level FlightAware Approximate
11:47AM -29.4499 160.2459 57° Northeast  Level FlightAware Approximate
11:47AM -29.1989 160.6842 237° Southwest 35,000  Level Aus ATC (Calculated)
11:48AM -29.3775 160.3729 57° Northeast  Level FlightAware Approximate
11:49AM -29.0944 160.8652 57° Northeast  Level FlightAware Approximate
11:50AM -29.0214 160.9913 57° Northeast  Level FlightAware Approximate
11:50AM -28.9025 161.1959 236° Southwest 35,000  Level Aus ATC (Calculated)
11:51AM -28.9483 161.1172 56° Northeast  Level FlightAware Approximate
11:52AM -28.8279 161.3236 56° Northeast  Level FlightAware Approximate
11:53AM -28.7545 161.4490 56° Northeast  Level FlightAware Approximate
11:54AM -28.6809 161.5742 56° Northeast  Level FlightAware Approximate
11:55AM -28.6072 161.6993 56° Northeast  Level FlightAware Approximate
11:55AM -28.5693 161.7636 56° Northeast 35,000  Level Aus ATC (Calculated)
11:57AM -28.4351 161.9902 56° Northeast  Level FlightAware Approximate
11:58AM -28.3610 162.1146 56° Northeast  Level FlightAware Approximate
11:59AM -28.2876 162.2395 56° Northeast  Level Estimated
12:00PM -28.2134 162.3637 56° Northeast  Level FlightAware Approximate
12:01PM -28.1391 162.4877 56° Northeast  Level FlightAware Approximate
12:01PM -28.0609 162.6154 222° Southwest 35,000  Level Aus ATC (Calculated)
12:02PM -28.0647 162.6116 56° Northeast  Level FlightAware Approximate
12:03PM -27.9118 162.8627 56° Northeast  Level FlightAware Approximate
12:04PM -27.8371 162.9860 56° Northeast  Level FlightAware Approximate
12:05PM -27.7622 163.1092 56° Northeast  Level FlightAware Approximate
12:06PM -27.6873 163.2322 55° Northeast  Level FlightAware Approximate
12:07PM -27.6122 163.3551 55° Northeast  Level FlightAware Approximate
12:08PM -27.5370 163.4777 55° Northeast  Level FlightAware Approximate
12:09PM -27.4618 163.6002 55° Northeast  Level FlightAware Approximate
12:10PM -27.3864 163.7226 55° Northeast  Level FlightAware Approximate
12:11PM -27.3109 163.8448 55° Northeast  Level FlightAware Approximate
12:12PM -27.2353 163.9668 55° Northeast  Level FlightAware Approximate
12:13PM -27.1596 164.0886 55° Northeast  Level FlightAware Approximate
12:14PM -27.0838 164.2103 55° Northeast  Level FlightAware Approximate
12:15PM -27.0079 164.3318 55° Northeast  Level FlightAware Approximate
12:16PM -26.9319 164.4531 55° Northeast  Level FlightAware Approximate
12:17PM -26.8558 164.5743 55° Northeast  Level FlightAware Approximate
12:18PM -26.7796 164.6953 55° Northeast  Level FlightAware Approximate
12:19PM -26.7032 164.8162 55° Northeast  Level FlightAware Approximate
12:20PM -26.6268 164.9369 55° Northeast  Level FlightAware Approximate
12:21PM -26.5503 165.0574 55° Northeast  Level FlightAware Approximate
12:22PM -26.4736 165.1778 55° Northeast  Level FlightAware Approximate
12:23PM -26.3969 165.2980 55° Northeast  Level FlightAware Approximate
12:24PM -26.3201 165.4181 54° Northeast  Level FlightAware Approximate
12:25PM -26.2432 165.5380 54° Northeast  Level FlightAware Approximate
12:26PM -26.1661 165.6577 54° Northeast  Level FlightAware Approximate
12:27PM -26.0890 165.7773 54° Northeast  Level FlightAware Approximate
12:28PM -26.0118 165.8967 54° Northeast  Level FlightAware Approximate
12:29PM -25.9344 166.0160 54° Northeast  Level FlightAware Approximate
12:30PM -25.8570 166.1351 54° Northeast  Level FlightAware Approximate
12:31PM -25.7795 166.2541 54° Northeast  Level FlightAware Approximate
12:32PM -25.7019 166.3729 54° Northeast  Level FlightAware Approximate
12:33PM -25.6242 166.4915 54° Northeast  Level FlightAware Approximate
12:34PM -25.5464 166.6100 54° Northeast  Level FlightAware Approximate
12:35PM -25.4685 166.7283 54° Northeast  Level FlightAware Approximate
12:36PM -25.3905 166.8465 54° Northeast  Level FlightAware Approximate
12:37PM -25.3133 166.9652 53° Northeast  Level Estimated
12:38PM -25.2350 167.0831 54° Northeast  Level FlightAware Approximate
12:39PM -25.1567 167.2008 54° Northeast  Level FlightAware Approximate
12:40PM -25.0783 167.3183 54° Northeast  Level FlightAware Approximate
12:41PM -24.9998 167.4357 54° Northeast  Level FlightAware Approximate
12:42PM -24.9212 167.5529 54° Northeast  Level FlightAware Approximate
12:43PM -24.8426 167.6700 53° Northeast  Level FlightAware Approximate
12:44PM -24.7638 167.7870 53° Northeast  Level FlightAware Approximate
12:45PM -24.6849 167.9038 53° Northeast  Level FlightAware Approximate
12:46PM -24.6060 168.0204 53° Northeast  Level FlightAware Approximate
12:47PM -24.5269 168.1369 53° Northeast  Level FlightAware Approximate
12:48PM -24.4478 168.2533 53° Northeast  Level FlightAware Approximate
12:49PM -24.3686 168.3695 53° Northeast  Level FlightAware Approximate
12:50PM -24.2893 168.4856 53° Northeast  Level FlightAware Approximate
12:51PM -24.2099 168.6015 53° Northeast  Level FlightAware Approximate
12:52PM -24.1304 168.7173 53° Northeast  Level FlightAware Approximate
12:53PM -24.0508 168.8329 53° Northeast  Level FlightAware Approximate
12:54PM -23.9711 168.9484 53° Northeast  Level FlightAware Approximate
12:55PM -23.8914 169.0637 53° Northeast  Level FlightAware Approximate
12:56PM -23.8116 169.1789 53° Northeast  Level FlightAware Approximate
12:57PM -23.7316 169.2940 53° Northeast  Level FlightAware Approximate
12:58PM -23.6516 169.4089 53° Northeast  Level FlightAware Approximate
12:59PM -23.5716 169.5237 53° Northeast  Level FlightAware Approximate
01:00PM -23.4914 169.6383 53° Northeast  Level FlightAware Approximate
01:01PM -23.4111 169.7528 53° Northeast  Level FlightAware Approximate
01:02PM -23.3308 169.8672 53° Northeast  Level FlightAware Approximate
01:03PM -23.2504 169.9814 53° Northeast  Level FlightAware Approximate
01:04PM -23.1699 170.0955 53° Northeast  Level FlightAware Approximate
01:05PM -23.0893 170.2095 52° Northeast  Level FlightAware Approximate
01:06PM -23.0086 170.3233 52° Northeast  Level FlightAware Approximate
01:07PM -22.9279 170.4369 52° Northeast  Level FlightAware Approximate
01:08PM -22.8470 170.5505 52° Northeast  Level FlightAware Approximate
01:09PM -22.7661 170.6639 52° Northeast  Level FlightAware Approximate
01:10PM -22.6851 170.7771 52° Northeast  Level FlightAware Approximate
01:11PM -22.6054 170.8914 52° Northeast  Level Estimated
01:12PM -22.5243 171.0044 52° Northeast  Level FlightAware Approximate
01:13PM -22.4430 171.1172 52° Northeast  Level FlightAware Approximate
01:14PM -22.3617 171.2299 52° Northeast  Level FlightAware Approximate
01:15PM -22.2802 171.3425 52° Northeast  Level FlightAware Approximate
01:16PM -22.1987 171.4550 52° Northeast  Level FlightAware Approximate
01:17PM -22.1172 171.5673 52° Northeast  Level FlightAware Approximate
01:18PM -22.0355 171.6795 52° Northeast  Level FlightAware Approximate
01:19PM -21.9538 171.7915 52° Northeast  Level FlightAware Approximate
01:20PM -21.8720 171.9035 52° Northeast  Level FlightAware Approximate
01:21PM -21.7901 172.0153 52° Northeast  Level FlightAware Approximate
01:22PM -21.7082 172.1270 52° Northeast  Level FlightAware Approximate
01:23PM -21.6261 172.2385 52° Northeast  Level FlightAware Approximate
01:24PM -21.5440 172.3499 52° Northeast  Level FlightAware Approximate
01:25PM -21.4618 172.4612 52° Northeast  Level FlightAware Approximate
01:26PM -21.3796 172.5724 52° Northeast  Level FlightAware Approximate
01:27PM -21.2973 172.6834 52° Northeast  Level FlightAware Approximate
01:28PM -21.2149 172.7943 51° Northeast  Level FlightAware Approximate
01:29PM -21.1324 172.9051 51° Northeast  Level FlightAware Approximate
01:30PM -21.0499 173.0158 51° Northeast  Level FlightAware Approximate
01:31PM -20.9673 173.1263 51° Northeast  Level FlightAware Approximate
01:32PM -20.8846 173.2368 51° Northeast  Level FlightAware Approximate
01:33PM -20.8018 173.3471 51° Northeast  Level FlightAware Approximate
01:34PM -20.7190 173.4573 51° Northeast  Level FlightAware Approximate
01:35PM -20.6361 173.5673 51° Northeast  Level FlightAware Approximate
01:36PM -20.5532 173.6773 51° Northeast  Level FlightAware Approximate
01:37PM -20.4701 173.7871 51° Northeast  Level FlightAware Approximate
01:38PM -20.3870 173.8968 51° Northeast  Level FlightAware Approximate
01:39PM -20.3039 174.0064 51° Northeast  Level FlightAware Approximate
01:40PM -20.2206 174.1158 51° Northeast  Level FlightAware Approximate
01:41PM -20.1373 174.2252 51° Northeast  Level FlightAware Approximate
01:42PM -20.0539 174.3344 51° Northeast  Level FlightAware Approximate
01:43PM -19.9705 174.4435 51° Northeast  Level FlightAware Approximate
01:44PM -19.8870 174.5525 51° Northeast  Level FlightAware Approximate
01:45PM -19.8034 174.6614 51° Northeast  Level FlightAware Approximate
01:46PM -19.7198 174.7702 51° Northeast  Level FlightAware Approximate
01:47PM -19.6361 174.8789 51° Northeast  Level FlightAware Approximate
01:48PM -19.5523 174.9874 51° Northeast  Level FlightAware Approximate
01:49PM -19.4685 175.0958 51° Northeast  Level FlightAware Approximate
01:50PM -19.3846 175.2042 51° Northeast  Level FlightAware Approximate
01:51PM -19.3006 175.3124 51° Northeast  Level FlightAware Approximate
01:52PM -19.2209 175.4241 54° Northeast  Level Estimated
01:53PM -19.1411 175.5357 53° Northeast  Level FlightAware Approximate
01:54PM -19.0613 175.6472 53° Northeast  Level FlightAware Approximate
01:55PM -18.9815 175.7586 53° Northeast  Level FlightAware Approximate
01:56PM -18.9015 175.8699 53° Northeast  Level FlightAware Approximate
01:57PM -18.8215 175.9812 53° Northeast  Level FlightAware Approximate
01:58PM -18.7414 176.0923 53° Northeast  Level FlightAware Approximate
01:59PM -18.6613 176.2032 53° Northeast  Level FlightAware Approximate
02:00PM -18.5811 176.3141 53° Northeast  Level FlightAware Approximate
02:01PM -18.5008 176.4249 53° Northeast  Level FlightAware Approximate
02:02PM -18.4205 176.5356 53° Northeast  Level FlightAware Approximate
02:03PM -18.3401 176.6462 53° Northeast  Level FlightAware Approximate
02:04PM -18.2595 176.7565 54° Northeast  Level Estimated
02:05PM -18.1789 176.8668 54° Northeast  Level Estimated
02:06PM -18.0981 176.9769 54° Northeast  Level Estimated
02:07PM -18.0173 177.0870 54° Northeast  Level Estimated
02:08PM -17.9365 177.1970 54° Northeast  Level Estimated
02:09PM -17.8556 177.3068 54° Northeast  Level Estimated
02:10PM -17.7746 177.4166 54° Northeast  Level Estimated
02:11PM -17.7564 177.4433 54° Northeast  Level FlightAware Approximate
02:12PM -17.7547 177.4436 54° Northeast  Level Estimated
02:13PM -17.7564 177.4433 54° Northeast  Level FlightAware Approximate
02:14PM -17.7547 177.4436 54° Northeast  Level Estimated
02:15PM -17.7564 177.4433 54° Northeast  Level FlightAware Approximate
02:16PM -17.7547 177.4436 54° Northeast  Level Estimated
02:17PM -17.7564 177.4433 54° Northeast  Level FlightAware Approximate
02:18PM -17.7547 177.4436 54° Northeast  Level Estimated
02:19PM -17.7564 177.4433 54° Northeast  Level FlightAware Approximate
02:20PM -17.7547 177.4436 54° Northeast  Level Estimated
02:21PM -17.7564 177.4433 54° Northeast  Level FlightAware Approximate
02:22PM -17.7547 177.4436 54° Northeast  Level Estimated
02:23PM -17.7564 177.4433 54° Northeast  Level FlightAware Approximate
02:24PM -17.7547 177.4436 54° Northeast  Level Estimated
02:25PM -17.7564 177.4433 54° Northeast  Level FlightAware Approximate
02:26PM -17.7547 177.4436 54° Northeast  Level Estimated
02:27PM -17.7564 177.4433 54° Northeast  Level FlightAware Approximate
02:28PM -17.7547 177.4436 54° Northeast  Level Estimated
02:29PM -17.7564 177.4433 54° Northeast  Level FlightAware Approximate